Time;durP1;ratioP1;P1;durP2;ratioP2;P2;SDS_P1;SDS_P2;PMS_P1;PMS_P2;Temp;Humidity;BMP_temperature;BMP_pressure;BME280_temperature;BME280_humidity;BME280_pressure;Samples;Min_cycle;Max_cycle;Signal;HPM_P1;HPM_P2
2023/01/11 00:00:31;;;;;;;;;;;3.30;99.90;;;;;;5050941;28;20454;-54
2023/01/11 00:03:00;;;;;;;1.95;0.93;;;3.30;99.90;;;;;;5048678;28;20109;-56
2023/01/11 00:05:27;;;;;;;1.38;0.75;;;3.30;99.90;;;;;;5049553;28;20059;-55
2023/01/11 00:07:54;;;;;;;;;;;3.40;99.90;;;;;;5051200;28;20353;-55
2023/01/11 00:10:21;;;;;;;0.80;0.50;;;3.40;99.90;;;;;;5049420;28;19924;-54
2023/01/11 00:12:48;;;;;;;1.48;0.60;;;3.40;99.90;;;;;;5048511;28;20051;-55
2023/01/11 00:15:15;;;;;;;;;;;3.40;99.90;;;;;;5051123;28;20485;-54
2023/01/11 00:17:42;;;;;;;1.10;0.80;;;3.40;99.90;;;;;;5041138;28;19924;-54
2023/01/11 00:20:09;;;;;;;;;;;3.40;99.90;;;;;;5049696;28;20141;-53
2023/01/11 00:22:36;;;;;;;4.67;1.17;;;3.50;99.90;;;;;;5054715;28;20400;-53
2023/01/11 00:25:03;;;;;;;1.77;0.70;;;3.50;99.90;;;;;;5050782;28;20040;-53
2023/01/11 00:27:30;;;;;;;1.25;0.52;;;3.50;99.90;;;;;;5054203;28;20079;-54
2023/01/11 00:29:57;;;;;;;1.20;0.88;;;3.50;99.90;;;;;;5052044;28;20312;-53
2023/01/11 00:32:26;;;;;;;;;;;3.50;99.90;;;;;;5052067;28;20051;-52
2023/01/11 00:34:53;;;;;;;0.85;0.70;;;3.50;99.90;;;;;;5051435;28;19968;-56
2023/01/11 00:37:20;;;;;;;1.25;0.57;;;3.50;99.90;;;;;;5052362;28;20044;-55
2023/01/11 00:39:47;;;;;;;2.28;0.75;;;3.60;99.90;;;;;;5053867;28;20044;-54
2023/01/11 00:47:56;;;;;;;2.47;1.20;;;3.60;99.90;;;;;;5049534;28;20262;-52
2023/01/11 00:50:24;;;;;;;1.10;0.75;;;3.70;99.90;;;;;;5051206;28;20564;-53
2023/01/11 00:52:50;;;;;;;0.52;0.50;;;3.70;99.90;;;;;;5051256;28;20067;-56
2023/01/11 00:55:17;;;;;;;;;;;3.70;99.90;;;;;;5038484;28;20063;-55
2023/01/11 00:57:44;;;;;;;2.20;0.50;;;3.70;99.90;;;;;;5048664;28;20352;-54
2023/01/11 01:00:11;;;;;;;;;;;3.70;99.90;;;;;;5045348;28;20300;-55
2023/01/11 01:02:38;;;;;;;0.77;0.70;;;3.70;99.90;;;;;;5051566;28;20005;-53
2023/01/11 01:05:06;;;;;;;1.02;0.63;;;3.70;99.90;;;;;;5044502;28;20426;-54
2023/01/11 01:07:33;;;;;;;1.70;0.50;;;3.70;99.90;;;;;;5054377;28;20457;-55
2023/01/11 01:10:00;;;;;;;1.30;0.60;;;3.80;99.90;;;;;;5053947;28;20286;-51
2023/01/11 01:15:12;;;;;;;3.03;0.80;;;3.80;99.90;;;;;;5049526;28;20037;-52
2023/01/11 01:17:38;;;;;;;;;;;3.80;99.90;;;;;;5051509;28;20599;-55
2023/01/11 01:20:06;;;;;;;0.75;0.57;;;3.80;99.90;;;;;;5050336;28;19923;-53
2023/01/11 01:22:33;;;;;;;0.63;0.45;;;3.80;99.90;;;;;;5049793;28;20230;-52
2023/01/11 01:25:00;;;;;;;0.75;0.47;;;3.80;99.90;;;;;;5049466;28;20356;-54
2023/01/11 01:27:26;;;;;;;0.75;0.63;;;3.80;99.90;;;;;;5050779;28;20048;-55
2023/01/11 01:29:53;;;;;;;0.82;0.63;;;3.80;99.90;;;;;;5052292;28;20043;-55
2023/01/11 01:32:20;;;;;;;;;;;3.80;99.90;;;;;;5050765;28;20123;-53
2023/01/11 01:34:47;;;;;;;1.92;0.57;;;3.80;99.90;;;;;;5047369;28;19924;-53
2023/01/11 01:37:14;;;;;;;;;;;3.80;99.90;;;;;;5050424;28;20087;-54
2023/01/11 01:39:41;;;;;;;1.38;0.60;;;3.90;99.90;;;;;;5052868;28;20341;-54
2023/01/11 01:42:15;;;;;;;;;;;3.90;99.90;;;;;;5051870;28;20479;-53
2023/01/11 01:44:53;;;;;;;0.40;0.40;;;3.90;99.90;;;;;;5052539;28;20099;-53
2023/01/11 01:47:26;;;;;;;0.88;0.63;;;3.90;99.90;;;;;;5033831;28;20718;-55
2023/01/11 01:49:53;;;;;;;4.43;0.80;;;3.80;99.90;;;;;;5051709;28;20636;-54
2023/01/11 01:52:20;;;;;;;0.65;0.60;;;3.90;99.90;;;;;;5037204;28;20039;-55
2023/01/11 01:54:48;;;;;;;4.10;1.42;;;3.90;99.90;;;;;;5050345;28;20086;-56
2023/01/11 01:57:23;;;;;;;0.55;0.50;;;3.90;99.90;;;;;;5036025;28;20138;-55
2023/01/11 01:59:51;;;;;;;1.92;1.20;;;3.90;99.90;;;;;;5043988;28;20049;-52
2023/01/11 02:02:21;;;;;;;3.45;0.80;;;3.80;99.90;;;;;;5053182;28;20121;-53
2023/01/11 02:04:48;;;;;;;1.70;0.70;;;3.80;99.90;;;;;;5046624;28;20028;-54
2023/01/11 02:07:21;;;;;;;5.30;0.75;;;3.80;99.90;;;;;;5052165;28;20120;-54
2023/01/11 02:10:08;;;;;;;1.33;0.75;;;3.80;99.90;;;;;;5023202;28;20055;-53
2023/01/11 02:12:42;;;;;;;1.10;0.63;;;3.70;99.90;;;;;;5051233;28;20661;-53
2023/01/11 02:15:10;;;;;;;1.48;0.70;;;3.70;99.90;;;;;;5034069;28;20197;-54
2023/01/11 02:17:37;;;;;;;1.27;0.70;;;3.70;99.90;;;;;;5047176;28;20044;-53
2023/01/11 02:20:12;;;;;;;;;;;3.70;99.90;;;;;;5053825;28;20612;-53
2023/01/11 02:22:52;;;;;;;2.55;0.70;;;3.70;99.90;;;;;;5050515;28;20174;-54
2023/01/11 02:25:34;;;;;;;3.95;0.77;;;3.70;99.90;;;;;;5052132;28;20044;-52
2023/01/11 02:28:16;;;;;;;0.60;0.50;;;3.60;99.90;;;;;;5049920;28;20073;-57
2023/01/11 02:30:53;;;;;;;0.38;0.35;;;3.60;99.90;;;;;;5051831;28;20116;-56
2023/01/11 02:33:50;;;;;;;0.40;0.35;;;3.60;99.90;;;;;;5049140;28;20056;-53
2023/01/11 02:36:49;;;;;;;0.82;0.50;;;3.60;99.90;;;;;;5051551;28;20345;-53
2023/01/11 02:39:21;;;;;;;1.30;0.50;;;3.50;99.90;;;;;;5050376;28;20585;-53
2023/01/11 02:45:24;;;;;;;5.40;1.40;;;3.40;99.90;;;;;;5049453;28;20122;-53
2023/01/11 02:48:03;;;;;;;0.50;0.38;;;3.40;99.90;;;;;;5048389;28;20048;-55
2023/01/11 02:50:40;;;;;;;1.05;0.63;;;3.30;99.90;;;;;;5049118;28;20311;-54
2023/01/11 02:53:17;;;;;;;3.40;1.20;;;3.30;99.90;;;;;;5052908;28;20059;-55
2023/01/11 02:55:47;;;;;;;0.60;0.60;;;3.30;99.90;;;;;;5049945;28;20537;-53
2023/01/11 02:58:18;;;;;;;0.32;0.32;;;3.20;99.90;;;;;;5052572;28;20048;-53
2023/01/11 03:00:46;;;;;;;1.73;0.60;;;3.10;99.90;;;;;;5049261;28;20149;-51
2023/01/11 03:03:21;;;;;;;1.00;0.57;;;3.10;99.90;;;;;;5046805;28;20542;-57
2023/01/11 03:05:53;;;;;;;1.15;0.50;;;3.00;99.90;;;;;;5050456;28;20458;-53
2023/01/11 03:08:36;;;;;;;1.02;0.60;;;3.00;99.90;;;;;;5053051;28;20356;-56
2023/01/11 03:14:40;;;;;;;2.05;0.38;;;2.90;99.90;;;;;;5048740;28;20044;-56
2023/01/11 03:17:26;;;;;;;2.65;0.43;;;2.90;99.90;;;;;;4954295;28;20557;-54
2023/01/11 03:20:12;;;;;;;1.17;0.50;;;2.90;99.90;;;;;;5048358;28;20515;-55
2023/01/11 03:22:56;;;;;;;1.52;0.50;;;2.90;99.90;;;;;;5047296;28;20537;-54
2023/01/11 03:25:46;;;;;;;0.98;0.40;;;2.90;99.90;;;;;;5050565;28;20039;-54
2023/01/11 03:28:31;;;;;;;0.82;0.43;;;2.90;99.90;;;;;;5034900;28;20326;-52
2023/01/11 03:31:07;;;;;;;0.57;0.50;;;2.90;99.90;;;;;;5047505;28;20297;-55
2023/01/11 03:33:47;;;;;;;0.20;0.20;;;2.90;99.90;;;;;;5049545;28;20558;-53
2023/01/11 03:36:23;;;;;;;0.85;0.32;;;2.80;99.90;;;;;;5048820;28;20045;-54
2023/01/11 03:39:08;;;;;;;0.55;0.50;;;2.80;99.90;;;;;;5047051;28;20262;-54
2023/01/11 03:41:39;;;;;;;0.90;0.50;;;2.80;99.90;;;;;;5040175;28;20360;-54
2023/01/11 03:44:08;;;;;;;1.75;0.70;;;2.70;99.90;;;;;;5052599;28;20101;-54
2023/01/11 03:46:40;;;;;;;0.50;0.50;;;2.70;99.90;;;;;;5033045;28;20047;-54
2023/01/11 03:49:12;;;;;;;0.65;0.45;;;2.70;99.90;;;;;;5045245;28;20612;-55
2023/01/11 03:51:44;;;;;;;1.50;0.50;;;2.70;99.90;;;;;;5049046;28;20551;-54
2023/01/11 03:54:15;;;;;;;0.43;0.40;;;2.70;99.90;;;;;;5048213;28;20041;-55
2023/01/11 03:56:52;;;;;;;0.82;0.47;;;2.70;99.90;;;;;;5050116;28;20094;-53
2023/01/11 03:59:19;;;;;;;;;;;2.70;99.90;;;;;;5046432;28;20044;-54
2023/01/11 04:01:46;;;;;;;1.13;0.35;;;2.70;99.90;;;;;;5047151;28;20185;-55
2023/01/11 04:04:12;;;;;;;;;;;2.80;99.90;;;;;;5050902;28;20131;-54
2023/01/11 04:06:39;;;;;;;0.65;0.50;;;2.70;99.90;;;;;;5048218;28;19928;-54
2023/01/11 04:09:06;;;;;;;;;;;2.70;99.90;;;;;;5035648;28;20325;-52
2023/01/11 04:11:33;;;;;;;0.47;0.40;;;2.70;99.90;;;;;;5053161;28;19924;-53
2023/01/11 04:14:00;;;;;;;;;;;2.70;99.90;;;;;;5053264;28;20102;-54
2023/01/11 04:16:27;;;;;;;1.88;0.63;;;2.80;99.90;;;;;;5049658;28;20752;-53
2023/01/11 04:18:54;;;;;;;0.47;0.47;;;2.80;99.90;;;;;;5051409;28;20064;-55
2023/01/11 04:21:21;;;;;;;0.65;0.50;;;2.80;99.90;;;;;;5048914;28;20466;-55
2023/01/11 04:23:48;;;;;;;0.30;0.30;;;2.70;99.90;;;;;;5048008;28;20067;-54
2023/01/11 04:26:16;;;;;;;0.52;0.40;;;2.70;99.90;;;;;;5045380;28;20089;-53
2023/01/11 04:28:43;;;;;;;0.63;0.50;;;2.60;99.90;;;;;;5047401;28;20101;-55
2023/01/11 04:31:10;;;;;;;1.08;0.40;;;2.60;99.90;;;;;;5047379;28;20039;-53
2023/01/11 04:33:37;;;;;;;0.50;0.50;;;2.60;99.90;;;;;;5045514;28;20533;-54
2023/01/11 04:36:09;;;;;;;1.17;0.50;;;2.50;99.90;;;;;;5047830;28;20043;-53
2023/01/11 04:38:36;;;;;;;1.25;0.43;;;2.50;99.90;;;;;;5048187;28;20048;-54
2023/01/11 04:43:52;;;;;;;0.80;0.50;;;2.40;99.90;;;;;;5048347;28;20048;-54
2023/01/11 04:46:18;;;;;;;1.23;0.50;;;2.40;99.90;;;;;;5048370;28;20044;-53
2023/01/11 04:48:46;;;;;;;0.40;0.40;;;2.30;99.90;;;;;;5044443;28;20051;-55
2023/01/11 04:51:12;;;;;;;0.82;0.60;;;2.30;99.90;;;;;;5029961;28;20073;-55
2023/01/11 04:53:39;;;;;;;0.57;0.43;;;2.30;99.90;;;;;;5036569;28;20135;-53
2023/01/11 04:56:06;;;;;;;;;;;2.30;99.90;;;;;;5051541;28;20419;-53
2023/01/11 04:58:35;;;;;;;0.85;0.70;;;2.20;99.90;;;;;;5045076;28;20580;-54
2023/01/11 05:01:13;;;;;;;1.40;0.60;;;2.20;99.90;;;;;;5026610;28;20120;-53
2023/01/11 05:03:39;;;;;;;0.95;0.50;;;2.20;99.90;;;;;;5049912;28;20040;-53
2023/01/11 05:06:06;;;;;;;;;;;2.20;99.90;;;;;;5051029;28;20980;-54
2023/01/11 05:08:34;;;;;;;1.13;0.60;;;2.20;99.90;;;;;;5052792;28;19924;-55
2023/01/11 05:11:06;;;;;;;0.40;0.40;;;2.20;99.90;;;;;;5049535;28;20047;-53
2023/01/11 05:13:42;;;;;;;1.05;0.90;;;2.20;99.90;;;;;;5042853;28;20044;-54
2023/01/11 05:16:10;;;;;;;2.08;0.93;;;2.20;99.90;;;;;;5051665;28;20458;-53
2023/01/11 05:18:42;;;;;;;2.35;1.08;;;2.20;99.90;;;;;;5051502;28;20149;-55
2023/01/11 05:21:11;;;;;;;2.85;1.23;;;2.20;99.90;;;;;;5055091;28;20386;-56
2023/01/11 05:23:39;;;;;;;0.82;0.57;;;2.30;99.90;;;;;;5054648;28;20559;-55
2023/01/11 05:26:08;;;;;;;0.75;0.45;;;2.20;99.90;;;;;;5051246;28;20053;-54
2023/01/11 05:28:35;;;;;;;1.15;0.77;;;2.20;99.90;;;;;;5036083;28;20089;-53
2023/01/11 05:31:02;;;;;;;3.30;0.95;;;2.30;99.90;;;;;;5048973;28;20064;-56
2023/01/11 05:33:29;;;;;;;;;;;2.20;99.90;;;;;;5051881;28;20839;-54
2023/01/11 05:36:00;;;;;;;0.90;0.65;;;2.30;99.90;;;;;;5041340;28;20336;-54
2023/01/11 05:38:28;;;;;;;0.75;0.60;;;2.30;99.90;;;;;;5052388;28;20983;-56
2023/01/11 05:41:00;;;;;;;2.58;0.77;;;2.30;99.90;;;;;;5043741;28;20052;-52
2023/01/11 05:43:28;;;;;;;0.43;0.43;;;2.40;99.90;;;;;;5054471;28;20550;-57
2023/01/11 05:45:57;;;;;;;0.75;0.55;;;2.40;99.90;;;;;;5050193;28;20549;-54
2023/01/11 05:48:24;;;;;;;0.55;0.45;;;2.40;99.90;;;;;;5050410;28;20152;-56
2023/01/11 05:50:54;;;;;;;0.57;0.32;;;2.50;99.90;;;;;;5050547;28;20210;-53
2023/01/11 05:53:23;;;;;;;1.70;0.73;;;2.50;99.90;;;;;;5034256;28;20574;-55
2023/01/11 05:55:54;;;;;;;0.47;0.40;;;2.50;99.90;;;;;;5035528;28;20050;-55
2023/01/11 05:58:22;;;;;;;1.38;0.70;;;2.50;99.90;;;;;;5033258;28;20127;-55
2023/01/11 06:00:51;;;;;;;0.77;0.63;;;2.50;99.90;;;;;;5051088;28;20477;-55
2023/01/11 06:03:18;;;;;;;0.85;0.35;;;2.50;99.90;;;;;;5036176;28;20145;-54
2023/01/11 06:05:46;;;;;;;0.93;0.52;;;2.50;99.90;;;;;;5039255;28;20044;-55
2023/01/11 06:08:13;;;;;;;1.65;0.60;;;2.50;99.90;;;;;;5054521;28;20367;-55
2023/01/11 06:10:40;;;;;;;1.50;0.52;;;2.50;99.90;;;;;;5052377;28;20052;-53
2023/01/11 06:13:26;;;;;;;2.40;0.85;;;2.60;99.90;;;;;;5050251;28;20048;-54
2023/01/11 06:16:01;;;;;;;0.47;0.47;;;2.60;99.90;;;;;;5049871;28;20055;-53
2023/01/11 06:18:31;;;;;;;0.85;0.65;;;2.70;99.90;;;;;;5054546;28;20097;-54
2023/01/11 06:20:58;;;;;;;1.08;0.80;;;2.70;99.90;;;;;;5051940;28;20044;-53
2023/01/11 06:23:26;;;;;;;1.98;0.82;;;2.80;99.90;;;;;;5048121;28;20387;-54
2023/01/11 06:25:53;;;;;;;0.73;0.70;;;2.90;99.90;;;;;;5052803;28;20143;-55
2023/01/11 06:28:20;;;;;;;1.98;0.65;;;2.90;99.90;;;;;;5050656;28;20040;-55
2023/01/11 06:30:54;;;;;;;;;;;3.00;99.90;;;;;;5054976;28;20664;-56
2023/01/11 06:33:22;;;;;;;0.93;0.80;;;3.00;99.90;;;;;;5052769;28;19997;-55
2023/01/11 06:35:49;;;;;;;0.93;0.85;;;3.10;99.90;;;;;;5051880;28;20127;-56
2023/01/11 06:38:18;;;;;;;1.08;0.50;;;3.10;99.90;;;;;;5050005;28;20265;-54
2023/01/11 06:40:52;;;;;;;2.85;0.90;;;3.10;99.90;;;;;;5048761;28;20607;-55
2023/01/11 06:43:19;;;;;;;1.90;0.82;;;3.20;99.90;;;;;;5050634;28;20048;-55
2023/01/11 06:45:46;;;;;;;1.55;1.02;;;3.20;99.90;;;;;;5032380;28;20502;-53
2023/01/11 06:48:13;;;;;;;3.85;0.80;;;3.20;99.90;;;;;;5050949;28;20135;-53
2023/01/11 06:50:40;;;;;;;;;;;3.20;99.90;;;;;;5053042;28;20111;-53
2023/01/11 06:53:07;;;;;;;0.70;0.60;;;3.20;99.90;;;;;;5048770;28;19930;-54
2023/01/11 06:55:33;;;;;;;;;;;3.30;99.90;;;;;;5048382;28;20048;-54
2023/01/11 06:58:00;;;;;;;0.80;0.70;;;3.30;99.90;;;;;;5050326;28;19924;-54
2023/01/11 07:00:27;;;;;;;;;;;3.30;99.90;;;;;;5052797;28;20056;-54
2023/01/11 07:02:53;;;;;;;0.95;0.70;;;3.30;99.90;;;;;;5051197;28;20006;-53
2023/01/11 07:05:20;;;;;;;0.95;0.80;;;3.40;99.90;;;;;;5041146;28;20137;-53
2023/01/11 07:07:47;;;;;;;1.77;1.00;;;3.40;99.90;;;;;;5051031;28;20040;-53
2023/01/11 07:10:15;;;;;;;1.60;1.02;;;3.40;99.90;;;;;;5038043;28;20534;-56
2023/01/11 07:12:42;;;;;;;0.60;0.60;;;3.40;99.90;;;;;;5051611;28;20298;-52
2023/01/11 07:15:09;;;;;;;;;;;3.30;99.90;;;;;;5053095;28;20051;-54
2023/01/11 07:17:36;;;;;;;2.63;1.30;;;3.30;99.90;;;;;;5052242;28;19931;-52
2023/01/11 07:20:04;;;;;;;1.60;1.27;;;3.30;99.90;;;;;;5050954;28;20037;-54
2023/01/11 07:22:35;;;;;;;2.10;1.20;;;3.30;99.90;;;;;;5041039;28;20087;-56
2023/01/11 07:25:03;;;;;;;1.58;1.00;;;3.20;99.90;;;;;;5051990;28;20473;-52
2023/01/11 07:27:30;;;;;;;4.57;1.10;;;3.20;99.90;;;;;;5050251;28;20387;-53
2023/01/11 07:30:00;;;;;;;2.38;1.35;;;3.20;99.90;;;;;;5048930;28;20041;-52
2023/01/11 07:32:27;;;;;;;4.72;1.10;;;3.20;99.90;;;;;;5049729;28;20048;-53
2023/01/11 07:34:54;;;;;;;7.28;2.25;;;3.20;99.90;;;;;;5048365;28;20352;-55
2023/01/11 07:37:24;;;;;;;3.40;1.40;;;3.20;99.90;;;;;;5039355;28;20679;-54
2023/01/11 07:39:54;;;;;;;5.25;1.25;;;3.20;99.90;;;;;;5051311;28;20041;-53
2023/01/11 07:45:08;;;;;;;3.33;1.55;;;3.20;99.90;;;;;;5028623;28;20381;-56
2023/01/11 07:47:34;;;;;;;1.48;1.10;;;3.30;99.90;;;;;;5040331;28;20051;-55
2023/01/11 07:50:01;;;;;;;;;;;3.30;99.90;;;;;;5051211;28;20063;-54
2023/01/11 07:52:28;;;;;;;2.63;1.30;;;3.30;99.90;;;;;;5048718;28;19978;-54
2023/01/11 07:55:00;;;;;;;;;;;3.30;99.90;;;;;;5045763;28;20746;-53
2023/01/11 07:57:31;;;;;;;5.53;1.80;;;3.40;99.90;;;;;;5051590;28;19923;-55
2023/01/11 07:59:58;;;;;;;4.00;2.72;;;3.50;99.90;;;;;;5048182;28;20036;-53
2023/01/11 08:02:25;;;;;;;4.13;2.47;;;3.60;99.90;;;;;;5050278;28;20044;-55
2023/01/11 08:04:52;;;;;;;2.97;1.40;;;3.60;99.90;;;;;;5033005;28;20132;-54
2023/01/11 08:07:19;;;;;;;;;;;3.70;99.90;;;;;;5052953;28;20040;-53
2023/01/11 08:09:45;;;;;;;4.88;2.15;;;3.80;99.90;;;;;;5053362;28;20031;-55
2023/01/11 08:14:58;;;;;;;3.20;2.10;;;4.00;99.90;;;;;;5049334;28;20359;-54
2023/01/11 08:17:25;;;;;;;3.13;2.00;;;4.10;99.90;;;;;;5050836;28;20125;-53
2023/01/11 08:19:52;;;;;;;4.55;2.17;;;4.20;99.90;;;;;;5033077;28;20113;-53
2023/01/11 08:22:19;;;;;;;5.38;2.53;;;4.30;99.90;;;;;;5040957;28;20477;-54
2023/01/11 08:24:45;;;;;;;3.50;1.90;;;4.50;99.90;;;;;;5052509;28;20029;-54
2023/01/11 08:27:12;;;;;;;2.80;1.73;;;4.60;99.90;;;;;;5048713;28;20555;-54
2023/01/11 08:29:42;;;;;;;6.93;2.95;;;4.70;99.90;;;;;;5050250;28;20048;-53
2023/01/11 08:32:11;;;;;;;4.28;2.35;;;4.90;99.90;;;;;;5045891;28;20782;-53
2023/01/11 08:34:38;;;;;;;3.90;2.22;;;5.00;99.90;;;;;;5048443;28;20076;-53
2023/01/11 08:37:05;;;;;;;6.20;1.80;;;5.20;99.90;;;;;;5050529;28;20044;-54
2023/01/11 08:39:32;;;;;;;5.38;2.70;;;5.40;99.90;;;;;;5049812;28;20044;-56
2023/01/11 08:41:59;;;;;;;;;;;5.70;99.90;;;;;;5052505;28;20082;-56
2023/01/11 08:44:26;;;;;;;3.28;1.90;;;5.90;99.90;;;;;;5049750;28;19924;-57
2023/01/11 08:47:02;;;;;;;4.50;2.33;;;6.10;99.90;;;;;;5046365;28;20466;-53
2023/01/11 08:49:29;;;;;;;3.28;2.30;;;6.20;99.90;;;;;;5050535;28;20124;-53
2023/01/11 08:51:56;;;;;;;6.63;2.60;;;6.40;99.90;;;;;;5052839;28;20495;-55
2023/01/11 08:54:23;;;;;;;3.53;2.30;;;6.50;99.90;;;;;;5051453;28;20036;-53
2023/01/11 08:56:50;;;;;;;4.30;2.38;;;6.60;99.90;;;;;;5052639;28;20058;-55
2023/01/11 08:59:18;;;;;;;3.03;1.95;;;6.80;99.90;;;;;;5053152;28;20051;-53
2023/01/11 09:01:45;;;;;;;3.05;2.20;;;6.90;99.90;;;;;;5051477;28;20612;-53
2023/01/11 09:04:13;;;;;;;4.50;2.50;;;7.00;99.90;;;;;;5040430;28;20855;-54
2023/01/11 09:06:51;;;;;;;2.70;1.70;;;7.20;99.90;;;;;;5054172;28;20044;-51
2023/01/11 09:09:18;;;;;;;2.90;2.40;;;7.40;99.90;;;;;;5054220;28;20123;-61
2023/01/11 09:11:55;;;;;;;5.80;2.70;;;7.60;99.90;;;;;;5054332;28;20048;-54
2023/01/11 09:14:26;;;;;;;3.67;2.42;;;7.80;99.90;;;;;;5054165;28;20052;-52
2023/01/11 09:16:54;;;;;;;6.75;2.83;;;7.90;99.90;;;;;;5053005;28;20506;-57
2023/01/11 09:19:21;;;;;;;4.47;2.08;;;8.00;99.90;;;;;;5053676;28;20560;-54
2023/01/11 09:21:47;;;;;;;3.70;2.30;;;8.00;99.90;;;;;;5054063;28;20303;-50
2023/01/11 09:24:14;;;;;;;;;;;8.00;99.90;;;;;;5052073;28;20043;-48
2023/01/11 09:26:42;;;;;;;4.22;2.45;;;8.00;99.90;;;;;;5050383;28;19924;-53
2023/01/11 09:29:10;;;;;;;5.80;2.35;;;8.00;99.90;;;;;;5054572;28;20068;-49
2023/01/11 09:31:37;;;;;;;4.45;2.42;;;8.00;99.90;;;;;;5052753;28;20532;-51
2023/01/11 09:34:05;;;;;;;3.28;2.40;;;8.00;99.90;;;;;;5039405;28;20045;-53
2023/01/11 09:36:34;;;;;;;3.55;2.28;;;7.90;99.90;;;;;;5033717;28;20052;-53
2023/01/11 09:39:07;;;;;;;3.00;2.20;;;7.90;99.90;;;;;;5052232;28;20409;-52
2023/01/11 09:42:06;;;;;;;4.28;2.50;;;7.80;99.90;;;;;;5041072;28;20048;-52
2023/01/11 09:44:35;;;;;;;3.33;2.30;;;7.80;99.90;;;;;;5053682;28;20085;-58
2023/01/11 09:47:35;;;;;;;4.45;2.67;;;7.80;99.90;;;;;;5050939;28;20050;-52
2023/01/11 09:50:11;;;;;;;4.03;2.60;;;7.70;99.90;;;;;;5050531;28;20052;-53
2023/01/11 09:52:44;;;;;;;7.20;2.78;;;7.70;99.90;;;;;;5047452;28;20140;-59
2023/01/11 09:55:18;;;;;;;2.78;2.10;;;7.70;99.90;;;;;;5033969;28;20490;-53
2023/01/11 09:58:04;;;;;;;3.72;2.42;;;7.60;99.90;;;;;;5051175;28;20048;-53
2023/01/11 10:00:51;;;;;;;4.47;2.72;;;7.60;99.90;;;;;;5054577;28;20058;-51
2023/01/11 10:03:33;;;;;;;6.70;2.50;;;7.50;99.90;;;;;;5049443;28;20064;-51
2023/01/11 10:06:25;;;;;;;4.47;2.67;;;7.50;99.90;;;;;;5052748;28;20063;-48
2023/01/11 10:09:24;;;;;;;3.63;2.28;;;7.40;99.90;;;;;;5053384;28;20577;-51
2023/01/11 10:12:30;;;;;;;5.60;2.30;;;7.40;99.90;;;;;;5052958;28;20485;-48
2023/01/11 10:15:34;;;;;;;4.45;2.15;;;7.30;99.90;;;;;;5052174;28;20352;-54
2023/01/11 10:18:25;;;;;;;6.55;2.53;;;7.30;99.90;;;;;;5053616;28;20595;-54
2023/01/11 10:21:35;;;;;;;5.15;2.70;;;7.30;99.90;;;;;;5053409;28;20052;-52
2023/01/11 10:24:15;;;;;;;3.60;2.70;;;7.30;99.90;;;;;;5054202;28;20128;-50
2023/01/11 10:26:42;;;;;;;4.32;1.70;;;7.30;99.90;;;;;;5052469;28;20481;-51
2023/01/11 10:32:02;;;;;;;3.75;2.30;;;7.20;99.90;;;;;;5052175;28;20305;-54
2023/01/11 10:40:39;;;;;;;3.47;2.33;;;7.20;99.90;;;;;;5049253;28;20052;-53
2023/01/11 10:43:21;;;;;;;4.00;2.40;;;7.20;99.90;;;;;;5052347;28;20070;-52
2023/01/11 10:45:50;;;;;;;5.25;2.63;;;7.20;99.90;;;;;;5052621;28;20045;-54
2023/01/11 10:48:56;;;;;;;5.75;3.00;;;7.20;99.90;;;;;;5052819;28;20164;-52
2023/01/11 10:51:37;;;;;;;4.45;2.83;;;7.20;99.90;;;;;;5011549;28;20231;-56
2023/01/11 10:54:15;;;;;;;5.10;2.45;;;7.20;99.90;;;;;;5049604;28;20051;-55
2023/01/11 10:57:07;;;;;;;4.38;2.58;;;7.20;99.90;;;;;;5050294;28;20157;-54
2023/01/11 10:59:59;;;;;;;6.03;2.90;;;7.20;99.90;;;;;;5050666;28;20131;-54
2023/01/11 11:02:41;;;;;;;6.18;3.08;;;7.20;99.90;;;;;;5036057;28;20125;-54
2023/01/11 11:05:14;;;;;;;8.07;3.65;;;7.20;99.90;;;;;;5051928;28;20039;-53
2023/01/11 11:07:49;;;;;;;11.10;4.07;;;7.20;99.90;;;;;;5052437;28;20283;-55
2023/01/11 11:10:26;;;;;;;6.07;3.08;;;7.20;99.90;;;;;;5035821;28;20063;-53
2023/01/11 11:13:11;;;;;;;9.05;3.35;;;7.20;99.90;;;;;;5050438;28;20704;-54
2023/01/11 11:15:53;;;;;;;7.00;3.22;;;7.20;99.90;;;;;;5051333;28;20565;-52
2023/01/11 11:18:20;;;;;;;8.40;3.03;;;7.20;99.90;;;;;;5050199;28;20079;-54
2023/01/11 11:20:47;;;;;;;;;;;7.20;99.90;;;;;;5053878;28;20105;-52
2023/01/11 11:23:21;;;;;;;6.97;2.70;;;7.20;99.90;;;;;;5051238;28;20002;-53
2023/01/11 11:25:54;;;;;;;7.60;3.10;;;7.20;99.90;;;;;;5050325;28;20123;-53
2023/01/11 11:28:32;;;;;;;6.90;2.88;;;7.20;99.90;;;;;;5051790;28;20056;-52
2023/01/11 11:31:03;;;;;;;10.95;3.97;;;7.20;99.90;;;;;;5053286;28;20074;-53
2023/01/11 11:33:47;;;;;;;4.10;2.83;;;7.20;99.90;;;;;;5051791;28;20043;-54
2023/01/11 11:36:16;;;;;;;5.28;2.92;;;7.20;99.90;;;;;;5054088;28;20188;-54
2023/01/11 11:39:17;;;;;;;9.90;2.70;;;7.20;99.90;;;;;;5041073;28;20047;-49
2023/01/11 11:41:50;;;;;;;9.65;2.88;;;7.20;99.90;;;;;;5050822;28;20497;-54
2023/01/11 11:44:25;;;;;;;26.48;10.95;;;7.20;99.90;;;;;;5052434;28;20573;-53
2023/01/11 11:47:12;;;;;;;26.75;11.13;;;7.20;99.90;;;;;;5051131;28;20457;-54
2023/01/11 11:49:40;;;;;;;16.38;7.63;;;7.30;99.90;;;;;;5051491;28;20052;-53
2023/01/11 11:52:13;;;;;;;9.75;5.30;;;7.30;99.90;;;;;;5049959;28;20228;-55
2023/01/11 11:54:48;;;;;;;11.02;5.40;;;7.30;99.90;;;;;;5050838;28;20048;-53
2023/01/11 11:57:19;;;;;;;11.57;3.97;;;7.30;99.90;;;;;;5047865;28;20127;-52
2023/01/11 11:59:48;;;;;;;11.63;3.78;;;7.30;99.90;;;;;;5052225;28;20079;-52
2023/01/11 12:02:27;;;;;;;12.13;3.50;;;7.30;99.90;;;;;;5049851;28;20049;-53
2023/01/11 12:05:04;;;;;;;4.30;2.50;;;7.30;99.90;;;;;;5033681;28;20325;-54
2023/01/11 12:07:41;;;;;;;5.40;2.28;;;7.30;99.90;;;;;;5035533;28;20098;-52
2023/01/11 12:10:26;;;;;;;11.75;3.40;;;7.30;99.90;;;;;;5053113;28;20060;-53
2023/01/11 12:13:01;;;;;;;9.88;4.07;;;7.30;99.90;;;;;;5050930;28;20443;-54
2023/01/11 12:15:31;;;;;;;8.25;3.17;;;7.40;99.90;;;;;;5041105;28;20461;-50
2023/01/11 12:18:22;;;;;;;5.95;2.90;;;7.40;99.90;;;;;;5053048;28;20048;-55
2023/01/11 12:20:49;;;;;;;6.53;2.40;;;7.40;99.90;;;;;;5057485;28;20186;-51
2023/01/11 12:23:17;;;;;;;;;;;7.40;99.90;;;;;;5052880;28;20847;-53
2023/01/11 12:26:17;;;;;;;2.28;1.30;;;7.40;99.90;;;;;;5046443;28;20094;-51
2023/01/11 12:29:06;;;;;;;3.05;1.33;;;7.50;99.90;;;;;;5057692;28;20375;-54
2023/01/11 12:31:54;;;;;;;2.65;1.00;;;7.40;99.90;;;;;;5054177;28;20078;-54
2023/01/11 12:34:45;;;;;;;0.82;0.70;;;7.40;99.90;;;;;;5051328;28;20160;-54
2023/01/11 12:37:30;;;;;;;1.60;1.10;;;7.40;99.90;;;;;;5050477;28;20441;-52
2023/01/11 12:40:34;;;;;;;1.30;0.93;;;7.40;99.90;;;;;;5053943;28;20041;-54
2023/01/11 12:43:29;;;;;;;0.95;0.70;;;7.40;99.90;;;;;;5042084;28;20047;-55
2023/01/11 12:46:20;;;;;;;1.63;0.60;;;7.40;99.90;;;;;;5038157;28;20047;-52
2023/01/11 12:48:53;;;;;;;0.85;0.60;;;7.30;99.90;;;;;;5052172;28;20261;-52
2023/01/11 12:51:41;;;;;;;0.52;0.50;;;7.40;99.90;;;;;;5053615;28;20151;-53
2023/01/11 12:54:30;;;;;;;0.88;0.70;;;7.30;99.90;;;;;;5051129;28;20060;-51
2023/01/11 12:57:27;;;;;;;0.55;0.55;;;7.30;99.90;;;;;;5052848;28;20131;-52
2023/01/11 13:00:15;;;;;;;2.33;0.80;;;7.30;99.90;;;;;;5033465;28;20130;-52
2023/01/11 13:03:19;;;;;;;3.00;0.90;;;7.30;99.90;;;;;;5053093;28;20041;-51
2023/01/11 13:06:05;;;;;;;0.40;0.35;;;7.30;99.90;;;;;;5051791;28;20145;-53
2023/01/11 13:08:48;;;;;;;0.50;0.50;;;7.20;99.90;;;;;;5051799;28;20060;-54
2023/01/11 13:11:36;;;;;;;0.55;0.35;;;7.20;99.90;;;;;;5051839;28;20129;-51
2023/01/11 13:14:30;;;;;;;1.35;0.70;;;7.30;99.90;;;;;;5051709;28;20040;-54
2023/01/11 13:17:22;;;;;;;0.77;0.70;;;7.30;99.90;;;;;;5053888;28;20137;-52
2023/01/11 13:20:01;;;;;;;0.40;0.40;;;7.30;99.90;;;;;;5036905;28;20128;-50
2023/01/11 13:22:33;;;;;;;0.60;0.60;;;7.30;99.90;;;;;;5054832;28;20040;-48
2023/01/11 13:25:04;;;;;;;1.77;1.08;;;7.20;99.90;;;;;;5050795;28;20044;-50
2023/01/11 13:27:32;;;;;;;2.45;1.60;;;7.20;99.90;;;;;;5052964;28;20048;-51
2023/01/11 13:30:00;;;;;;;10.02;4.80;;;7.20;99.90;;;;;;5053142;28;20455;-48
2023/01/11 13:32:32;;;;;;;9.98;5.72;;;7.30;99.90;;;;;;5053282;28;20694;-52
2023/01/11 13:35:29;;;;;;;8.43;4.35;;;7.20;99.90;;;;;;5040000;28;20528;-52
2023/01/11 13:38:04;;;;;;;5.88;3.45;;;7.30;99.90;;;;;;5019855;28;20167;-53
2023/01/11 13:40:53;;;;;;;8.30;3.63;;;7.30;99.90;;;;;;5051821;28;20048;-52
2023/01/11 13:43:32;;;;;;;2.90;2.20;;;7.30;99.90;;;;;;5050443;28;20123;-52
2023/01/11 13:46:10;;;;;;;2.35;1.40;;;7.20;99.90;;;;;;5054121;28;20567;-54
2023/01/11 13:48:40;;;;;;;;;;;7.20;99.90;;;;;;5050586;28;20048;-52
2023/01/11 13:51:33;;;;;;;2.65;1.65;;;7.20;99.90;;;;;;5048200;28;20192;-53
2023/01/11 13:54:21;;;;;;;7.13;1.50;;;7.20;99.90;;;;;;5049885;28;20070;-53
2023/01/11 13:56:57;;;;;;;2.67;1.42;;;7.20;99.90;;;;;;5047164;28;20109;-51
2023/01/11 13:59:33;;;;;;;1.77;1.30;;;7.20;99.90;;;;;;5049431;28;20733;-53
2023/01/11 14:02:20;;;;;;;5.07;1.30;;;7.20;99.90;;;;;;5048424;28;20438;-51
2023/01/11 14:05:06;;;;;;;1.38;0.80;;;7.10;99.90;;;;;;5032964;28;20043;-53
2023/01/11 14:07:47;;;;;;;3.30;1.00;;;7.20;99.90;;;;;;5051317;28;20045;-50
2023/01/11 14:11:05;;;;;;;1.70;0.90;;;7.10;99.90;;;;;;5032181;28;20040;-49